KAMN/AMN METAR and TAF weather

Enter ICAO airport designator
Station Type Date Time Source
KAMN METAR 2021/05/11 23:19 UTC NOAA

KAMN 112319Z AUTO 33011G15KT 10SM SCT065 12/M05 A3028 RMK AO2 T01151046


Station Type Date Time Source
KAMN Decoded METAR 2021/05/11 23:19 UTC NOAA

Alma, Gratiot Community Airport, MI, United States (KAMN) 43-19-19N 084-41-16W
May 11, 2021 - 07:19 PM EDT / 2021.05.11 2319 UTC
Wind: from the NNW (330 degrees) at 13 MPH (11 KT) gusting to 17 MPH (15 KT):0
Visibility: 10 mile(s):0
Sky conditions: partly cloudy
Temperature: 52.7 F (11.5 C)
Dew Point: 23.7 F (-4.6 C)
Relative Humidity: 32%
Pressure (altimeter): 30.28 in. Hg (1025 hPa)
ob: KAMN 112319Z AUTO 33011G15KT 10SM SCT065 12/M05 A3028 RMK AO2 T01151046
cycle: 23

Station Type Date Time Source
KAMN TAF UTC NOAA

Error!

Example: see airport list